createdAt,value
2017-08-09T00:00:44.641Z,1.47
2017-08-09T00:03:12.053Z,1.40
2017-08-09T00:05:39.454Z,1.40
2017-08-09T00:08:06.871Z,1.63
2017-08-09T00:10:34.277Z,1.60
2017-08-09T00:13:02.854Z,1.40
2017-08-09T00:15:30.273Z,1.60
2017-08-09T00:17:57.682Z,1.60
2017-08-09T00:20:25.096Z,1.67
2017-08-09T00:22:52.518Z,1.47
2017-08-09T00:25:19.933Z,1.70
2017-08-09T00:27:47.702Z,1.77
2017-08-09T00:30:15.766Z,1.70
2017-08-09T00:32:43.162Z,1.63
2017-08-09T00:35:11.406Z,1.90
2017-08-09T00:37:38.844Z,1.93
2017-08-09T00:40:06.258Z,2.00
2017-08-09T00:42:34.450Z,1.80
2017-08-09T00:45:01.866Z,1.67
2017-08-09T00:47:29.261Z,2.20
2017-08-09T00:49:56.670Z,2.20
2017-08-09T00:52:24.081Z,1.73
2017-08-09T00:54:51.492Z,2.83
2017-08-09T00:57:19.311Z,2.03
2017-08-09T00:59:46.726Z,2.20
2017-08-09T01:02:14.954Z,2.37
2017-08-09T01:04:43.130Z,2.20
2017-08-09T01:07:10.543Z,2.37
2017-08-09T01:09:37.962Z,2.27
2017-08-09T01:12:05.751Z,2.73
2017-08-09T01:14:33.161Z,2.53
2017-08-09T01:17:00.575Z,2.40
2017-08-09T01:19:27.989Z,2.60
2017-08-09T01:27:41.430Z,2.57
2017-08-09T01:30:08.846Z,2.60
2017-08-09T01:32:36.266Z,3.17
2017-08-09T01:35:03.685Z,2.83
2017-08-09T01:37:31.101Z,3.27
2017-08-09T01:39:58.517Z,2.70
2017-08-09T01:42:25.926Z,3.33
2017-08-09T01:44:54.110Z,3.57
2017-08-09T01:47:21.526Z,3.70
2017-08-09T01:49:48.945Z,3.47
2017-08-09T01:52:17.025Z,3.40
2017-08-09T01:54:44.449Z,3.07
2017-08-09T01:57:12.391Z,4.00
2017-08-09T01:59:39.806Z,3.00
2017-08-09T02:02:07.214Z,2.90
2017-08-09T02:04:35.138Z,3.00
2017-08-09T02:07:02.554Z,2.90
2017-08-09T02:09:29.982Z,3.30
2017-08-09T02:11:57.394Z,2.70
2017-08-09T02:14:24.823Z,3.23
2017-08-09T02:16:53.626Z,3.50
2017-08-09T02:19:21.044Z,3.57
2017-08-09T02:21:48.449Z,3.17
2017-08-09T02:24:15.874Z,4.30
2017-08-09T02:26:44.054Z,3.00
2017-08-09T02:29:12.235Z,3.67
2017-08-09T02:31:39.638Z,3.00
2017-08-09T02:34:07.059Z,3.80
2017-08-09T02:36:35.465Z,3.50
2017-08-09T02:39:02.887Z,2.53
2017-08-09T02:41:30.294Z,3.30
2017-08-09T02:43:57.724Z,2.83
2017-08-09T02:46:25.135Z,3.67
2017-08-09T02:48:53.309Z,3.33
2017-08-09T02:51:20.738Z,3.37
2017-08-09T02:53:48.142Z,3.00
2017-08-09T02:56:15.557Z,2.97
2017-08-09T02:58:42.980Z,3.67
2017-08-09T03:01:10.745Z,3.40
2017-08-09T03:03:38.134Z,3.50
2017-08-09T03:06:05.554Z,2.90
2017-08-09T03:08:32.967Z,3.93
2017-08-09T03:11:00.387Z,3.70
2017-08-09T03:13:27.819Z,3.07
2017-08-09T03:15:55.221Z,3.53
2017-08-09T03:18:22.638Z,3.60
2017-08-09T03:23:47.078Z,3.33
2017-08-09T03:26:14.801Z,3.70
2017-08-09T03:28:42.591Z,3.50
2017-08-09T03:31:10.012Z,3.03
2017-08-09T03:33:37.430Z,3.37
2017-08-09T03:36:06.010Z,3.30
2017-08-09T03:38:33.542Z,3.30
2017-08-09T03:41:01.626Z,2.80
2017-08-09T03:43:29.048Z,3.10
2017-08-09T03:45:56.453Z,3.17
2017-08-09T03:48:24.641Z,3.17
2017-08-09T03:50:52.068Z,2.93
2017-08-09T03:53:19.474Z,3.60
2017-08-09T03:55:46.887Z,3.30
2017-08-09T03:58:14.300Z,2.90
2017-08-09T04:00:41.714Z,3.47
2017-08-09T04:03:09.901Z,3.07
2017-08-09T04:05:37.350Z,3.40
2017-08-09T04:08:04.776Z,3.20
2017-08-09T04:10:32.182Z,3.00
2017-08-09T04:12:59.597Z,3.43
2017-08-09T04:15:27.709Z,3.90
2017-08-09T04:17:55.124Z,4.17
2017-08-09T04:20:22.539Z,3.63
2017-08-09T04:22:49.951Z,3.20
2017-08-09T04:25:17.367Z,3.30
2017-08-09T04:27:45.891Z,3.63
2017-08-09T04:30:14.078Z,3.10
2017-08-09T04:32:41.506Z,2.97
2017-08-09T04:35:08.901Z,3.80
2017-08-09T04:37:37.210Z,3.20
2017-08-09T04:40:04.622Z,3.07
2017-08-09T04:42:32.034Z,2.60
2017-08-09T04:44:59.464Z,2.53
2017-08-09T04:47:26.873Z,3.17
2017-08-09T04:49:55.576Z,2.50
2017-08-09T04:52:22.983Z,2.90
2017-08-09T04:54:50.394Z,2.30
2017-08-09T04:57:17.812Z,2.20
2017-08-09T04:59:45.226Z,2.60
2017-08-09T05:02:12.665Z,2.53
2017-08-09T05:04:40.058Z,2.40
2017-08-09T05:07:07.475Z,2.13
2017-08-09T05:09:34.878Z,1.97
2017-08-09T05:12:02.311Z,2.33
2017-08-09T05:14:29.714Z,2.60
2017-08-09T05:16:57.898Z,2.50
2017-08-09T05:19:25.313Z,2.63
2017-08-09T05:21:52.729Z,3.03
2017-08-09T05:24:20.157Z,2.50
2017-08-09T05:26:47.942Z,2.40
2017-08-09T05:29:15.365Z,2.67
2017-08-09T05:31:42.782Z,2.90
2017-08-09T05:34:10.866Z,1.90
2017-08-09T05:36:38.274Z,3.10
2017-08-09T05:39:05.686Z,2.60
2017-08-09T05:41:33.101Z,1.80
2017-08-09T05:44:00.518Z,2.60
2017-08-09T05:46:27.935Z,2.50
2017-08-09T05:48:55.362Z,2.07
2017-08-09T05:51:23.540Z,2.20
2017-08-09T05:53:50.952Z,2.60
2017-08-09T05:56:18.361Z,2.20
2017-08-09T05:58:45.794Z,1.57
2017-08-09T06:01:13.971Z,1.67
2017-08-09T06:03:41.381Z,1.60
2017-08-09T06:06:08.805Z,1.40
2017-08-09T06:08:36.202Z,1.80
2017-08-09T06:11:03.615Z,1.90
2017-08-09T06:13:31.026Z,1.30
2017-08-09T06:15:58.442Z,1.80
2017-08-09T06:18:26.022Z,1.80
2017-08-09T06:20:53.442Z,1.87
2017-08-09T06:23:20.854Z,1.60
2017-08-09T06:25:48.276Z,1.50
2017-08-09T06:28:15.686Z,1.70
2017-08-09T06:30:43.111Z,1.40
2017-08-09T06:33:10.513Z,1.63
2017-08-09T06:35:37.948Z,1.50
2017-08-09T06:38:05.358Z,1.63
2017-08-09T06:40:32.770Z,1.20
2017-08-09T06:43:00.958Z,1.00
2017-08-09T06:45:28.894Z,1.30
2017-08-09T06:47:57.214Z,1.57
2017-08-09T06:50:24.629Z,1.33
2017-08-09T06:52:52.047Z,1.10
2017-08-09T06:55:19.459Z,1.30
2017-08-09T06:57:47.645Z,2.13
2017-08-09T07:00:15.051Z,1.50
2017-08-09T07:02:42.470Z,1.20
2017-08-09T07:05:09.890Z,1.37
2017-08-09T07:07:37.327Z,1.30
2017-08-09T07:10:05.498Z,1.30
2017-08-09T07:12:33.314Z,1.17
2017-08-09T07:15:00.730Z,1.10
2017-08-09T07:17:28.147Z,1.40
2017-08-09T07:19:55.606Z,1.37
2017-08-09T07:25:15.917Z,1.20
2017-08-09T07:27:43.338Z,1.20
2017-08-09T07:30:10.758Z,1.17
2017-08-09T07:32:38.174Z,1.00
2017-08-09T07:35:05.597Z,1.30
2017-08-09T07:37:33.785Z,1.30
2017-08-09T07:40:01.194Z,0.90
2017-08-09T07:42:29.406Z,1.30
2017-08-09T07:44:57.456Z,1.17
2017-08-09T07:47:24.869Z,1.20
2017-08-09T07:49:52.285Z,1.10
2017-08-09T07:52:21.250Z,0.90
2017-08-09T07:54:49.591Z,1.10
2017-08-09T07:57:17.001Z,1.40
2017-08-09T07:59:45.205Z,1.40
2017-08-09T08:02:12.619Z,1.10
2017-08-09T08:04:40.028Z,0.90
2017-08-09T08:07:07.495Z,1.10
2017-08-09T08:09:34.904Z,1.00
2017-08-09T08:12:02.313Z,1.10
2017-08-09T08:14:29.737Z,1.00
2017-08-09T08:16:57.149Z,1.20
2017-08-09T08:19:24.568Z,0.90
2017-08-09T08:21:51.975Z,0.87
2017-08-09T08:24:19.386Z,1.17
2017-08-09T08:26:46.806Z,1.20
2017-08-09T08:29:14.215Z,1.10
2017-08-09T08:31:41.645Z,1.00
2017-08-09T08:34:09.725Z,1.03
2017-08-09T08:36:37.114Z,1.20
2017-08-09T08:39:04.537Z,0.80
2017-08-09T08:41:31.946Z,0.90
2017-08-09T08:43:59.366Z,1.10
2017-08-09T08:46:26.787Z,0.90
2017-08-09T08:48:54.194Z,0.90
2017-08-09T08:51:21.617Z,0.93
2017-08-09T08:53:49.030Z,1.00
2017-08-09T08:56:16.445Z,0.80
2017-08-09T08:58:43.885Z,1.30
2017-08-09T09:01:11.302Z,0.80
2017-08-09T09:03:39.495Z,0.90
2017-08-09T09:06:06.901Z,0.70
2017-08-09T09:08:34.328Z,0.90
2017-08-09T09:11:01.746Z,1.00
2017-08-09T09:13:29.179Z,1.07
2017-08-09T09:15:56.582Z,1.10
2017-08-09T09:18:24.000Z,0.90
2017-08-09T09:26:48.069Z,1.03
2017-08-09T09:29:16.131Z,0.80
2017-08-09T09:31:43.542Z,0.87
2017-08-09T09:34:10.962Z,0.90
2017-08-09T09:36:38.380Z,0.80
2017-08-09T09:39:05.793Z,0.90
2017-08-09T09:41:33.205Z,0.90
2017-08-09T09:44:00.609Z,0.87
2017-08-09T09:46:28.034Z,0.80
2017-08-09T09:48:55.446Z,0.87
2017-08-09T09:51:23.638Z,0.77
2017-08-09T09:53:51.055Z,0.80
2017-08-09T09:56:18.484Z,1.17
2017-08-09T09:58:47.691Z,1.00
2017-08-09T10:01:15.105Z,1.07
2017-08-09T10:03:42.518Z,1.10
2017-08-09T10:06:09.941Z,0.97
2017-08-09T10:08:37.354Z,0.83
2017-08-09T10:11:05.545Z,0.60
2017-08-09T10:13:33.642Z,0.80
2017-08-09T10:16:01.067Z,1.10
2017-08-09T10:18:28.485Z,1.00
2017-08-09T10:21:14.521Z,1.00
2017-08-09T10:23:41.938Z,0.80
2017-08-09T10:26:09.362Z,0.90
2017-08-09T10:28:36.781Z,0.80
2017-08-09T10:31:04.806Z,0.70
2017-08-09T10:33:32.244Z,1.00
2017-08-09T10:35:59.645Z,0.90
2017-08-09T10:38:28.599Z,0.90
2017-08-09T10:40:56.022Z,1.00
2017-08-09T10:43:23.441Z,0.70
2017-08-09T10:45:50.858Z,0.60
2017-08-09T10:48:18.284Z,0.90
2017-08-09T10:50:46.218Z,1.10
2017-08-09T10:53:21.630Z,0.80
2017-08-09T10:55:49.042Z,0.90
2017-08-09T10:58:17.229Z,0.70
2017-08-09T11:00:44.650Z,1.07
2017-08-09T11:03:13.000Z,1.00
2017-08-09T11:05:40.421Z,0.83
2017-08-09T11:08:07.839Z,1.17
2017-08-09T11:10:35.269Z,1.03
2017-08-09T11:13:02.683Z,1.00
2017-08-09T11:15:30.107Z,1.00
2017-08-09T11:17:57.517Z,1.00
2017-08-09T11:20:24.942Z,1.20
2017-08-09T11:22:52.354Z,1.10
2017-08-09T11:25:19.782Z,1.23
2017-08-09T11:27:47.181Z,1.00
2017-08-09T11:30:14.618Z,0.97
2017-08-09T11:32:42.034Z,1.00
2017-08-09T11:35:09.459Z,1.00
2017-08-09T11:37:36.865Z,1.40
2017-08-09T11:40:04.310Z,1.10
2017-08-09T11:42:31.723Z,1.30
2017-08-09T11:44:59.133Z,1.00
2017-08-09T11:47:26.566Z,0.97
2017-08-09T11:49:54.745Z,1.10
2017-08-09T11:52:22.185Z,1.17
2017-08-09T11:54:50.365Z,0.90
2017-08-09T11:57:19.227Z,0.90
2017-08-09T11:59:46.646Z,0.97
2017-08-09T12:02:14.065Z,0.70
2017-08-09T12:04:42.253Z,1.03
2017-08-09T12:07:10.465Z,1.03
2017-08-09T12:09:37.877Z,0.93
2017-08-09T12:12:05.297Z,1.00
2017-08-09T12:14:32.702Z,0.90
2017-08-09T12:17:00.122Z,1.00
2017-08-09T12:19:27.533Z,1.20
2017-08-09T12:21:54.946Z,1.13
2017-08-09T12:24:22.367Z,0.80
2017-08-09T12:26:49.773Z,0.93
2017-08-09T12:29:17.201Z,1.10
2017-08-09T12:31:44.622Z,0.77
2017-08-09T12:34:12.050Z,0.90
2017-08-09T12:36:39.458Z,0.90
2017-08-09T12:39:07.650Z,1.13
2017-08-09T12:41:35.074Z,1.03
2017-08-09T12:44:02.486Z,1.10
2017-08-09T12:46:29.918Z,0.80
2017-08-09T12:48:57.323Z,0.80
2017-08-09T12:51:24.738Z,0.80
2017-08-09T12:53:52.154Z,0.80
2017-08-09T12:56:19.565Z,1.13
2017-08-09T12:58:47.004Z,0.67
2017-08-09T13:01:14.421Z,0.93
2017-08-09T13:03:41.830Z,0.67
2017-08-09T13:06:09.244Z,0.73
2017-08-09T13:08:36.669Z,0.73
2017-08-09T13:11:04.090Z,0.87
2017-08-09T13:13:32.998Z,0.83
2017-08-09T13:16:00.413Z,0.93
2017-08-09T13:18:27.827Z,0.80
2017-08-09T13:29:56.164Z,0.90
2017-08-09T13:32:29.364Z,1.13
2017-08-09T13:34:56.782Z,1.00
2017-08-09T13:37:24.206Z,0.70
2017-08-09T13:39:51.623Z,1.00
2017-08-09T13:42:20.211Z,0.93
2017-08-09T13:44:47.626Z,1.00
2017-08-09T13:47:15.821Z,1.00
2017-08-09T13:49:43.225Z,1.00
2017-08-09T13:52:10.637Z,0.90
2017-08-09T13:54:38.046Z,0.80
2017-08-09T13:57:05.461Z,0.80
2017-08-09T13:59:32.869Z,0.60
2017-08-09T14:02:01.049Z,0.50
2017-08-09T14:04:29.233Z,0.50
2017-08-09T14:06:56.641Z,0.60
2017-08-09T14:09:24.062Z,0.60
2017-08-09T14:11:51.473Z,0.60
2017-08-09T14:14:18.898Z,0.50
2017-08-09T14:16:46.302Z,0.60
2017-08-09T14:19:14.482Z,0.70
2017-08-09T14:21:50.479Z,0.60
2017-08-09T14:24:17.885Z,0.40
2017-08-09T14:26:46.067Z,0.70
2017-08-09T14:29:14.266Z,0.60
2017-08-09T14:31:41.742Z,0.57
2017-08-09T14:34:09.928Z,0.60
2017-08-09T14:36:38.761Z,0.70
2017-08-09T14:39:07.854Z,0.73
2017-08-09T14:41:36.042Z,0.60
2017-08-09T14:44:03.450Z,0.83
2017-08-09T14:46:31.007Z,0.80
2017-08-09T14:48:58.395Z,0.80
2017-08-09T14:51:26.582Z,0.67
2017-08-09T14:53:53.990Z,0.70
2017-08-09T14:56:21.414Z,0.70
2017-08-09T14:58:49.633Z,0.80
2017-08-09T15:01:17.049Z,0.83
2017-08-09T15:03:44.454Z,0.77
2017-08-09T15:06:11.874Z,0.93
2017-08-09T15:08:39.286Z,0.80
2017-08-09T15:11:07.469Z,0.67
2017-08-09T15:13:34.877Z,0.60
2017-08-09T15:16:02.296Z,0.80
2017-08-09T15:18:30.262Z,0.80
2017-08-09T15:32:31.508Z,0.90
2017-08-09T15:34:58.935Z,1.10
2017-08-09T15:37:26.363Z,1.00
2017-08-09T15:39:53.782Z,0.90
2017-08-09T15:42:21.204Z,0.90
2017-08-09T15:44:48.619Z,0.83
2017-08-09T15:47:16.056Z,0.90
2017-08-09T15:49:43.511Z,0.87
2017-08-09T15:52:10.897Z,1.03
2017-08-09T15:54:38.325Z,0.87
2017-08-09T15:57:05.745Z,0.80
2017-08-09T15:59:33.161Z,0.90
2017-08-09T16:02:00.579Z,0.90
2017-08-09T16:04:28.760Z,1.17
2017-08-09T16:06:57.095Z,0.77
2017-08-09T16:09:24.519Z,0.97
2017-08-09T16:11:52.082Z,0.90
2017-08-09T16:14:19.488Z,0.77
2017-08-09T16:16:46.890Z,1.10
2017-08-09T16:19:14.325Z,1.43
2017-08-09T16:21:54.833Z,0.73
2017-08-09T16:24:23.009Z,1.00
2017-08-09T16:26:51.199Z,0.70
2017-08-09T16:29:18.625Z,0.77
2017-08-09T16:31:46.809Z,1.00
2017-08-09T16:34:14.986Z,0.90
2017-08-09T16:36:42.643Z,0.77
2017-08-09T16:39:10.041Z,0.97
2017-08-09T16:41:37.466Z,1.10
2017-08-09T16:44:04.883Z,1.00
2017-08-09T16:46:32.309Z,0.97
2017-08-09T16:48:59.717Z,1.03
2017-08-09T16:51:27.750Z,1.10
2017-08-09T16:53:55.168Z,1.10
2017-08-09T16:56:22.826Z,0.87
2017-08-09T16:58:50.246Z,0.87
2017-08-09T17:01:17.682Z,1.30
2017-08-09T17:03:45.089Z,1.20
2017-08-09T17:06:12.506Z,1.30
2017-08-09T17:08:39.926Z,1.17
2017-08-09T17:11:07.349Z,1.30
2017-08-09T17:13:34.765Z,1.37
2017-08-09T17:16:02.183Z,1.70
2017-08-09T17:18:29.702Z,1.20
2017-08-09T17:20:57.116Z,1.13
2017-08-09T17:23:24.535Z,1.00
2017-08-09T17:25:52.723Z,1.23
2017-08-09T17:28:20.130Z,1.10
2017-08-09T17:30:47.781Z,1.03
2017-08-09T17:33:15.200Z,1.10
2017-08-09T17:35:42.601Z,0.93
2017-08-09T17:38:10.815Z,1.20
2017-08-09T17:40:40.102Z,1.20
2017-08-09T17:43:08.284Z,1.10
2017-08-09T17:45:36.471Z,2.27
2017-08-09T17:48:04.642Z,1.30
2017-08-09T17:50:32.060Z,1.40
2017-08-09T17:52:59.474Z,1.20
2017-08-09T17:55:26.905Z,1.43
2017-08-09T17:57:55.101Z,1.50
2017-08-09T18:00:22.798Z,1.20
2017-08-09T18:02:51.181Z,1.60
2017-08-09T18:05:18.607Z,2.03
2017-08-09T18:07:46.027Z,1.57
2017-08-09T18:10:14.216Z,1.93
2017-08-09T18:12:41.623Z,1.47
2017-08-09T18:15:09.052Z,2.73
2017-08-09T18:17:36.495Z,2.60
2017-08-09T18:20:04.671Z,2.03
2017-08-09T18:22:32.086Z,4.43
2017-08-09T18:24:59.531Z,2.13
2017-08-09T18:27:26.944Z,1.50
2017-08-09T18:29:54.343Z,1.30
2017-08-09T18:32:21.779Z,1.50
2017-08-09T18:34:49.178Z,1.50
2017-08-09T18:37:16.599Z,1.50
2017-08-09T18:39:45.829Z,1.47
2017-08-09T18:42:14.678Z,2.07
2017-08-09T18:44:42.086Z,1.60
2017-08-09T18:47:10.270Z,1.70
2017-08-09T18:49:37.686Z,2.13
2017-08-09T18:52:05.110Z,1.50
2017-08-09T18:54:32.530Z,1.90
2017-08-09T18:56:59.944Z,2.10
2017-08-09T18:59:27.345Z,1.70
2017-08-09T19:04:53.766Z,1.50
2017-08-09T19:07:21.169Z,3.83
2017-08-09T19:09:48.578Z,4.93
2017-08-09T19:12:15.999Z,1.60
2017-08-09T19:14:43.411Z,1.50
2017-08-09T19:17:11.598Z,1.53
2017-08-09T19:19:39.010Z,1.40
2017-08-09T19:22:06.450Z,1.90
2017-08-09T19:24:33.860Z,1.30
2017-08-09T19:27:02.041Z,4.10
2017-08-09T19:29:29.446Z,1.53
2017-08-09T19:31:57.241Z,1.20
2017-08-09T19:34:25.426Z,1.90
2017-08-09T19:36:53.621Z,4.30
2017-08-09T19:39:21.021Z,3.07
2017-08-09T19:41:48.433Z,4.47
2017-08-09T19:44:15.841Z,2.20
2017-08-09T19:46:43.256Z,1.80
2017-08-09T19:49:10.677Z,1.43
2017-08-09T19:51:38.877Z,1.87
2017-08-09T19:54:06.319Z,1.70
2017-08-09T19:56:34.556Z,2.20
2017-08-09T19:59:02.652Z,1.80
2017-08-09T20:01:30.047Z,1.57
2017-08-09T20:03:58.320Z,1.63
2017-08-09T20:06:25.722Z,1.50
2017-08-09T20:08:53.146Z,1.37
2017-08-09T20:11:20.563Z,2.07
2017-08-09T20:13:47.965Z,1.60
2017-08-09T20:16:15.386Z,1.83
2017-08-09T20:18:42.790Z,1.37
2017-08-09T20:21:10.215Z,1.60
2017-08-09T20:23:37.625Z,1.60
2017-08-09T20:26:05.050Z,1.57
2017-08-09T20:28:32.467Z,1.40
2017-08-09T20:30:59.882Z,1.47
2017-08-09T20:33:27.285Z,1.77
2017-08-09T20:35:54.713Z,2.37
2017-08-09T20:38:22.886Z,1.87
2017-08-09T20:40:51.070Z,1.87
2017-08-09T20:43:18.766Z,1.53
2017-08-09T20:45:46.839Z,1.80
2017-08-09T20:48:14.610Z,1.33
2017-08-09T20:50:42.031Z,1.70
2017-08-09T20:53:11.393Z,1.93
2017-08-09T20:55:38.802Z,1.70
2017-08-09T20:58:06.226Z,1.90
2017-08-09T21:03:27.738Z,2.30
2017-08-09T21:05:55.150Z,1.70
2017-08-09T21:08:22.565Z,2.00
2017-08-09T21:10:50.498Z,2.00
2017-08-09T21:13:17.914Z,2.17
2017-08-09T21:15:45.322Z,1.83
2017-08-09T21:18:12.738Z,2.00
2017-08-09T21:20:40.940Z,2.30
2017-08-09T21:23:08.353Z,2.03
2017-08-09T21:25:35.770Z,1.73
2017-08-09T21:28:03.198Z,1.90
2017-08-09T21:30:30.602Z,1.83
2017-08-09T21:32:58.027Z,1.83
2017-08-09T21:35:25.450Z,1.90
2017-08-09T21:37:52.870Z,2.10
2017-08-09T21:40:20.279Z,1.90
2017-08-09T21:42:47.690Z,3.30
2017-08-09T21:45:15.874Z,2.07
2017-08-09T21:47:43.284Z,2.57
2017-08-09T21:50:10.721Z,2.40
2017-08-09T21:52:38.130Z,2.33
2017-08-09T21:55:05.550Z,2.70
2017-08-09T21:57:32.966Z,2.43
2017-08-09T22:00:00.378Z,2.50
2017-08-09T22:02:27.805Z,2.00
2017-08-09T22:04:55.221Z,2.40
2017-08-09T22:07:22.637Z,3.07
2017-08-09T22:09:50.054Z,3.20
2017-08-09T22:12:17.464Z,3.10
2017-08-09T22:14:44.901Z,3.30
2017-08-09T22:17:12.320Z,4.60
2017-08-09T22:19:39.718Z,3.87
2017-08-09T22:22:07.133Z,4.70
2017-08-09T22:24:34.550Z,3.63
2017-08-09T22:27:01.966Z,4.33
2017-08-09T22:29:29.378Z,3.80
2017-08-09T22:31:57.566Z,4.00
2017-08-09T22:34:24.974Z,4.23
2017-08-09T22:36:52.398Z,4.00
2017-08-09T22:39:19.806Z,4.90
2017-08-09T22:41:47.221Z,4.20
2017-08-09T22:44:14.643Z,5.20
2017-08-09T22:46:42.058Z,4.13
2017-08-09T22:49:09.495Z,5.03
2017-08-09T22:51:36.893Z,4.30
2017-08-09T22:54:04.308Z,4.50
2017-08-09T22:56:31.743Z,4.73
2017-08-09T23:01:53.531Z,4.20
2017-08-09T23:04:20.951Z,2.30
2017-08-09T23:06:48.366Z,3.00
2017-08-09T23:09:15.786Z,3.70
2017-08-09T23:11:43.222Z,3.10
2017-08-09T23:14:10.634Z,3.67
2017-08-09T23:16:38.037Z,3.27
2017-08-09T23:19:06.242Z,3.90
2017-08-09T23:21:33.661Z,4.90
2017-08-09T23:24:01.069Z,4.20
2017-08-09T23:26:29.409Z,5.00
2017-08-09T23:28:56.822Z,4.30
2017-08-09T23:31:24.243Z,4.73
2017-08-09T23:33:51.663Z,4.60
2017-08-09T23:36:19.862Z,4.63
2017-08-09T23:38:47.273Z,5.20
2017-08-09T23:41:14.690Z,4.73
2017-08-09T23:43:42.106Z,4.70
2017-08-09T23:46:09.510Z,4.83
2017-08-09T23:48:38.114Z,4.73
2017-08-09T23:51:05.531Z,5.20
2017-08-09T23:53:32.952Z,4.60
2017-08-09T23:56:00.371Z,4.30
2017-08-09T23:58:28.145Z,3.97
